sensor_id;sensor_type;location;lat;lon;timestamp;P1;durP1;ratioP1;P2;durP2;ratioP2
37787;SDS011;23627;53.302;-6.362;2022-08-25T00:03:49;7.88;;;2.10;;
37787;SDS011;23627;53.302;-6.362;2022-08-25T00:06:15;7.72;;;1.90;;
37787;SDS011;23627;53.302;-6.362;2022-08-25T00:08:41;5.10;;;1.80;;
37787;SDS011;23627;53.302;-6.362;2022-08-25T00:11:12;9.05;;;1.80;;
37787;SDS011;23627;53.302;-6.362;2022-08-25T00:13:41;6.22;;;1.85;;
37787;SDS011;23627;53.302;-6.362;2022-08-25T00:16:12;7.20;;;1.70;;
37787;SDS011;23627;53.302;-6.362;2022-08-25T00:18:42;8.27;;;2.38;;
37787;SDS011;23627;53.302;-6.362;2022-08-25T00:21:11;8.77;;;2.08;;
37787;SDS011;23627;53.302;-6.362;2022-08-25T00:23:38;6.22;;;2.03;;
37787;SDS011;23627;53.302;-6.362;2022-08-25T00:26:04;8.75;;;2.15;;
37787;SDS011;23627;53.302;-6.362;2022-08-25T00:28:31;6.40;;;1.75;;
37787;SDS011;23627;53.302;-6.362;2022-08-25T00:30:57;8.15;;;1.70;;
37787;SDS011;23627;53.302;-6.362;2022-08-25T00:33:25;8.05;;;1.85;;
37787;SDS011;23627;53.302;-6.362;2022-08-25T00:35:51;6.32;;;1.40;;
37787;SDS011;23627;53.302;-6.362;2022-08-25T00:38:18;6.57;;;1.30;;
37787;SDS011;23627;53.302;-6.362;2022-08-25T00:40:44;7.35;;;1.85;;
37787;SDS011;23627;53.302;-6.362;2022-08-25T00:43:32;5.32;;;1.50;;
37787;SDS011;23627;53.302;-6.362;2022-08-25T00:46:04;6.50;;;1.60;;
37787;SDS011;23627;53.302;-6.362;2022-08-25T00:48:30;4.82;;;1.50;;
37787;SDS011;23627;53.302;-6.362;2022-08-25T00:50:56;6.88;;;1.40;;
37787;SDS011;23627;53.302;-6.362;2022-08-25T00:53:22;5.47;;;1.42;;
37787;SDS011;23627;53.302;-6.362;2022-08-25T00:55:48;9.80;;;1.98;;
37787;SDS011;23627;53.302;-6.362;2022-08-25T00:58:15;8.48;;;1.95;;
37787;SDS011;23627;53.302;-6.362;2022-08-25T01:00:47;7.53;;;1.77;;
37787;SDS011;23627;53.302;-6.362;2022-08-25T01:03:15;9.13;;;1.58;;
37787;SDS011;23627;53.302;-6.362;2022-08-25T01:05:43;9.07;;;1.65;;
37787;SDS011;23627;53.302;-6.362;2022-08-25T01:08:10;7.78;;;2.22;;
37787;SDS011;23627;53.302;-6.362;2022-08-25T01:10:37;10.95;;;2.15;;
37787;SDS011;23627;53.302;-6.362;2022-08-25T01:13:10;7.53;;;1.30;;
37787;SDS011;23627;53.302;-6.362;2022-08-25T01:15:48;9.10;;;1.50;;
37787;SDS011;23627;53.302;-6.362;2022-08-25T01:18:18;12.50;;;2.15;;
37787;SDS011;23627;53.302;-6.362;2022-08-25T01:20:48;5.55;;;1.50;;
37787;SDS011;23627;53.302;-6.362;2022-08-25T01:23:24;8.25;;;1.55;;
37787;SDS011;23627;53.302;-6.362;2022-08-25T01:28:22;7.93;;;1.40;;
37787;SDS011;23627;53.302;-6.362;2022-08-25T01:30:48;12.65;;;1.83;;
37787;SDS011;23627;53.302;-6.362;2022-08-25T01:33:14;7.20;;;1.30;;
37787;SDS011;23627;53.302;-6.362;2022-08-25T01:35:41;6.25;;;1.55;;
37787;SDS011;23627;53.302;-6.362;2022-08-25T01:38:08;6.82;;;1.50;;
37787;SDS011;23627;53.302;-6.362;2022-08-25T01:40:34;7.20;;;1.30;;
37787;SDS011;23627;53.302;-6.362;2022-08-25T01:45:40;5.88;;;1.40;;
37787;SDS011;23627;53.302;-6.362;2022-08-25T01:48:08;5.90;;;1.40;;
37787;SDS011;23627;53.302;-6.362;2022-08-25T01:50:34;8.35;;;1.38;;
37787;SDS011;23627;53.302;-6.362;2022-08-25T01:55:52;10.88;;;1.50;;
37787;SDS011;23627;53.302;-6.362;2022-08-25T01:58:29;10.00;;;1.83;;
37787;SDS011;23627;53.302;-6.362;2022-08-25T02:00:59;6.97;;;1.60;;
37787;SDS011;23627;53.302;-6.362;2022-08-25T02:03:28;4.95;;;1.38;;
37787;SDS011;23627;53.302;-6.362;2022-08-25T02:05:54;7.82;;;1.60;;
37787;SDS011;23627;53.302;-6.362;2022-08-25T02:08:21;7.18;;;1.45;;
37787;SDS011;23627;53.302;-6.362;2022-08-25T02:10:49;6.82;;;1.33;;
37787;SDS011;23627;53.302;-6.362;2022-08-25T02:13:15;7.97;;;1.80;;
37787;SDS011;23627;53.302;-6.362;2022-08-25T02:15:43;5.68;;;1.50;;
37787;SDS011;23627;53.302;-6.362;2022-08-25T02:18:11;7.88;;;1.70;;
37787;SDS011;23627;53.302;-6.362;2022-08-25T02:20:37;7.97;;;1.50;;
37787;SDS011;23627;53.302;-6.362;2022-08-25T02:23:03;8.85;;;1.75;;
37787;SDS011;23627;53.302;-6.362;2022-08-25T02:25:29;7.53;;;1.70;;
37787;SDS011;23627;53.302;-6.362;2022-08-25T02:27:55;7.80;;;1.48;;
37787;SDS011;23627;53.302;-6.362;2022-08-25T02:30:21;7.97;;;1.65;;
37787;SDS011;23627;53.302;-6.362;2022-08-25T02:32:47;6.25;;;1.50;;
37787;SDS011;23627;53.302;-6.362;2022-08-25T02:35:13;6.35;;;1.42;;
37787;SDS011;23627;53.302;-6.362;2022-08-25T02:37:39;9.23;;;1.60;;
37787;SDS011;23627;53.302;-6.362;2022-08-25T02:40:05;10.35;;;1.98;;
37787;SDS011;23627;53.302;-6.362;2022-08-25T02:42:31;8.52;;;2.38;;
37787;SDS011;23627;53.302;-6.362;2022-08-25T02:44:57;5.65;;;1.55;;
37787;SDS011;23627;53.302;-6.362;2022-08-25T02:47:23;7.60;;;1.42;;
37787;SDS011;23627;53.302;-6.362;2022-08-25T02:49:50;10.07;;;1.63;;
37787;SDS011;23627;53.302;-6.362;2022-08-25T02:52:16;8.98;;;1.60;;
37787;SDS011;23627;53.302;-6.362;2022-08-25T02:54:42;7.57;;;1.52;;
37787;SDS011;23627;53.302;-6.362;2022-08-25T02:57:08;8.90;;;1.48;;
37787;SDS011;23627;53.302;-6.362;2022-08-25T02:59:36;6.80;;;1.50;;
37787;SDS011;23627;53.302;-6.362;2022-08-25T03:02:02;5.50;;;1.30;;
37787;SDS011;23627;53.302;-6.362;2022-08-25T03:04:28;8.18;;;1.70;;
37787;SDS011;23627;53.302;-6.362;2022-08-25T03:06:55;6.82;;;1.90;;
37787;SDS011;23627;53.302;-6.362;2022-08-25T03:09:21;10.90;;;1.90;;
37787;SDS011;23627;53.302;-6.362;2022-08-25T03:11:47;8.77;;;1.77;;
37787;SDS011;23627;53.302;-6.362;2022-08-25T03:14:13;5.18;;;1.40;;
37787;SDS011;23627;53.302;-6.362;2022-08-25T03:16:39;8.68;;;1.50;;
37787;SDS011;23627;53.302;-6.362;2022-08-25T03:19:06;8.80;;;2.03;;
37787;SDS011;23627;53.302;-6.362;2022-08-25T03:21:32;13.18;;;2.00;;
37787;SDS011;23627;53.302;-6.362;2022-08-25T03:23:58;6.95;;;1.75;;
37787;SDS011;23627;53.302;-6.362;2022-08-25T03:26:24;7.00;;;1.55;;
37787;SDS011;23627;53.302;-6.362;2022-08-25T03:29:09;5.15;;;1.27;;
37787;SDS011;23627;53.302;-6.362;2022-08-25T03:31:36;9.35;;;1.73;;
37787;SDS011;23627;53.302;-6.362;2022-08-25T03:34:02;9.00;;;1.50;;
37787;SDS011;23627;53.302;-6.362;2022-08-25T03:36:28;7.25;;;1.52;;
37787;SDS011;23627;53.302;-6.362;2022-08-25T03:38:54;8.93;;;1.70;;
37787;SDS011;23627;53.302;-6.362;2022-08-25T03:41:21;8.75;;;1.58;;
37787;SDS011;23627;53.302;-6.362;2022-08-25T03:43:49;9.32;;;1.40;;
37787;SDS011;23627;53.302;-6.362;2022-08-25T03:46:16;8.63;;;1.65;;
37787;SDS011;23627;53.302;-6.362;2022-08-25T03:48:52;7.13;;;1.50;;
37787;SDS011;23627;53.302;-6.362;2022-08-25T03:51:22;7.50;;;1.45;;
37787;SDS011;23627;53.302;-6.362;2022-08-25T03:53:54;9.07;;;1.88;;
37787;SDS011;23627;53.302;-6.362;2022-08-25T03:56:20;7.45;;;1.50;;
37787;SDS011;23627;53.302;-6.362;2022-08-25T03:58:46;7.15;;;2.03;;
37787;SDS011;23627;53.302;-6.362;2022-08-25T04:01:12;10.00;;;1.90;;
37787;SDS011;23627;53.302;-6.362;2022-08-25T04:03:39;6.70;;;1.25;;
37787;SDS011;23627;53.302;-6.362;2022-08-25T04:06:05;9.30;;;1.83;;
37787;SDS011;23627;53.302;-6.362;2022-08-25T04:08:31;5.82;;;1.38;;
37787;SDS011;23627;53.302;-6.362;2022-08-25T04:10:57;6.88;;;1.60;;
37787;SDS011;23627;53.302;-6.362;2022-08-25T04:13:23;7.38;;;1.42;;
37787;SDS011;23627;53.302;-6.362;2022-08-25T04:15:49;5.28;;;1.73;;
37787;SDS011;23627;53.302;-6.362;2022-08-25T04:18:15;9.73;;;1.30;;
37787;SDS011;23627;53.302;-6.362;2022-08-25T04:20:41;6.03;;;1.40;;
37787;SDS011;23627;53.302;-6.362;2022-08-25T04:23:08;11.05;;;1.70;;
37787;SDS011;23627;53.302;-6.362;2022-08-25T04:25:34;7.15;;;1.63;;
37787;SDS011;23627;53.302;-6.362;2022-08-25T04:28:06;5.15;;;1.40;;
37787;SDS011;23627;53.302;-6.362;2022-08-25T04:30:32;9.70;;;1.83;;
37787;SDS011;23627;53.302;-6.362;2022-08-25T04:32:59;8.75;;;1.58;;
37787;SDS011;23627;53.302;-6.362;2022-08-25T04:35:25;7.82;;;1.48;;
37787;SDS011;23627;53.302;-6.362;2022-08-25T04:37:50;6.22;;;1.55;;
37787;SDS011;23627;53.302;-6.362;2022-08-25T04:40:16;8.52;;;1.67;;
37787;SDS011;23627;53.302;-6.362;2022-08-25T04:42:42;6.97;;;1.50;;
37787;SDS011;23627;53.302;-6.362;2022-08-25T04:45:09;5.78;;;1.48;;
37787;SDS011;23627;53.302;-6.362;2022-08-25T04:47:35;5.57;;;1.58;;
37787;SDS011;23627;53.302;-6.362;2022-08-25T04:50:03;5.93;;;1.67;;
37787;SDS011;23627;53.302;-6.362;2022-08-25T04:52:29;7.60;;;1.50;;
37787;SDS011;23627;53.302;-6.362;2022-08-25T04:54:55;6.55;;;1.35;;
37787;SDS011;23627;53.302;-6.362;2022-08-25T04:57:21;9.75;;;1.70;;
37787;SDS011;23627;53.302;-6.362;2022-08-25T04:59:46;9.40;;;1.90;;
37787;SDS011;23627;53.302;-6.362;2022-08-25T05:02:12;8.35;;;1.70;;
37787;SDS011;23627;53.302;-6.362;2022-08-25T05:04:38;8.93;;;1.60;;
37787;SDS011;23627;53.302;-6.362;2022-08-25T05:07:04;8.73;;;1.55;;
37787;SDS011;23627;53.302;-6.362;2022-08-25T05:09:30;6.03;;;1.55;;
37787;SDS011;23627;53.302;-6.362;2022-08-25T05:11:56;6.43;;;1.30;;
37787;SDS011;23627;53.302;-6.362;2022-08-25T05:14:21;6.35;;;1.45;;
37787;SDS011;23627;53.302;-6.362;2022-08-25T05:16:48;7.28;;;1.27;;
37787;SDS011;23627;53.302;-6.362;2022-08-25T05:19:14;8.75;;;1.63;;
37787;SDS011;23627;53.302;-6.362;2022-08-25T05:21:40;8.85;;;1.70;;
37787;SDS011;23627;53.302;-6.362;2022-08-25T05:24:06;7.30;;;1.60;;
37787;SDS011;23627;53.302;-6.362;2022-08-25T05:26:33;6.20;;;1.30;;
37787;SDS011;23627;53.302;-6.362;2022-08-25T05:29:00;9.38;;;1.58;;
37787;SDS011;23627;53.302;-6.362;2022-08-25T05:31:28;8.60;;;1.40;;
37787;SDS011;23627;53.302;-6.362;2022-08-25T05:33:55;6.25;;;1.38;;
37787;SDS011;23627;53.302;-6.362;2022-08-25T05:36:22;7.38;;;1.38;;
37787;SDS011;23627;53.302;-6.362;2022-08-25T05:38:49;8.20;;;1.90;;
37787;SDS011;23627;53.302;-6.362;2022-08-25T05:41:17;9.77;;;1.77;;
37787;SDS011;23627;53.302;-6.362;2022-08-25T05:43:45;7.55;;;1.42;;
37787;SDS011;23627;53.302;-6.362;2022-08-25T05:46:13;7.13;;;1.63;;
37787;SDS011;23627;53.302;-6.362;2022-08-25T05:48:40;6.05;;;1.40;;
37787;SDS011;23627;53.302;-6.362;2022-08-25T05:51:07;6.82;;;1.20;;
37787;SDS011;23627;53.302;-6.362;2022-08-25T05:53:37;5.57;;;1.38;;
37787;SDS011;23627;53.302;-6.362;2022-08-25T05:56:05;4.60;;;1.23;;
37787;SDS011;23627;53.302;-6.362;2022-08-25T05:58:32;5.30;;;1.38;;
37787;SDS011;23627;53.302;-6.362;2022-08-25T06:00:58;5.82;;;1.15;;
37787;SDS011;23627;53.302;-6.362;2022-08-25T06:03:47;5.90;;;1.20;;
37787;SDS011;23627;53.302;-6.362;2022-08-25T06:06:14;6.72;;;1.48;;
37787;SDS011;23627;53.302;-6.362;2022-08-25T06:08:41;5.95;;;1.20;;
37787;SDS011;23627;53.302;-6.362;2022-08-25T06:11:08;3.60;;;0.85;;
37787;SDS011;23627;53.302;-6.362;2022-08-25T06:13:35;3.45;;;1.10;;
37787;SDS011;23627;53.302;-6.362;2022-08-25T06:16:01;5.30;;;1.20;;
37787;SDS011;23627;53.302;-6.362;2022-08-25T06:18:27;4.85;;;1.23;;
37787;SDS011;23627;53.302;-6.362;2022-08-25T06:20:52;7.72;;;1.50;;
37787;SDS011;23627;53.302;-6.362;2022-08-25T06:23:19;4.82;;;1.17;;
37787;SDS011;23627;53.302;-6.362;2022-08-25T06:25:48;5.22;;;1.05;;
37787;SDS011;23627;53.302;-6.362;2022-08-25T06:28:15;5.95;;;1.17;;
37787;SDS011;23627;53.302;-6.362;2022-08-25T06:30:42;5.30;;;1.10;;
37787;SDS011;23627;53.302;-6.362;2022-08-25T06:33:07;5.72;;;1.10;;
37787;SDS011;23627;53.302;-6.362;2022-08-25T06:35:33;4.18;;;1.00;;
37787;SDS011;23627;53.302;-6.362;2022-08-25T06:37:59;6.03;;;1.48;;
37787;SDS011;23627;53.302;-6.362;2022-08-25T06:40:25;7.28;;;1.20;;
37787;SDS011;23627;53.302;-6.362;2022-08-25T06:42:50;8.07;;;1.60;;
37787;SDS011;23627;53.302;-6.362;2022-08-25T06:45:16;5.85;;;1.50;;
37787;SDS011;23627;53.302;-6.362;2022-08-25T06:47:42;4.28;;;1.15;;
37787;SDS011;23627;53.302;-6.362;2022-08-25T06:50:08;6.03;;;0.95;;
37787;SDS011;23627;53.302;-6.362;2022-08-25T06:52:34;4.55;;;0.80;;
37787;SDS011;23627;53.302;-6.362;2022-08-25T06:55:01;4.43;;;1.02;;
37787;SDS011;23627;53.302;-6.362;2022-08-25T06:57:27;6.80;;;0.77;;
37787;SDS011;23627;53.302;-6.362;2022-08-25T06:59:52;4.75;;;1.15;;
37787;SDS011;23627;53.302;-6.362;2022-08-25T07:02:18;4.90;;;1.10;;
37787;SDS011;23627;53.302;-6.362;2022-08-25T07:04:44;4.00;;;0.90;;
37787;SDS011;23627;53.302;-6.362;2022-08-25T07:07:10;5.15;;;1.20;;
37787;SDS011;23627;53.302;-6.362;2022-08-25T07:09:36;6.18;;;1.40;;
37787;SDS011;23627;53.302;-6.362;2022-08-25T07:12:02;3.95;;;1.33;;
37787;SDS011;23627;53.302;-6.362;2022-08-25T07:14:28;5.32;;;1.42;;
37787;SDS011;23627;53.302;-6.362;2022-08-25T07:16:55;5.18;;;1.42;;
37787;SDS011;23627;53.302;-6.362;2022-08-25T07:19:21;2.53;;;1.10;;
37787;SDS011;23627;53.302;-6.362;2022-08-25T07:21:49;5.10;;;1.50;;
37787;SDS011;23627;53.302;-6.362;2022-08-25T07:24:16;6.32;;;1.50;;
37787;SDS011;23627;53.302;-6.362;2022-08-25T07:26:42;4.57;;;1.40;;
37787;SDS011;23627;53.302;-6.362;2022-08-25T07:31:47;5.60;;;1.60;;
37787;SDS011;23627;53.302;-6.362;2022-08-25T07:34:13;6.65;;;1.77;;
37787;SDS011;23627;53.302;-6.362;2022-08-25T07:36:57;7.00;;;1.55;;
37787;SDS011;23627;53.302;-6.362;2022-08-25T07:39:24;5.47;;;1.63;;
37787;SDS011;23627;53.302;-6.362;2022-08-25T07:41:50;4.78;;;1.38;;
37787;SDS011;23627;53.302;-6.362;2022-08-25T07:44:17;4.93;;;1.15;;
37787;SDS011;23627;53.302;-6.362;2022-08-25T07:46:44;4.57;;;1.67;;
37787;SDS011;23627;53.302;-6.362;2022-08-25T07:49:10;4.13;;;1.40;;
37787;SDS011;23627;53.302;-6.362;2022-08-25T07:51:36;6.82;;;1.95;;
37787;SDS011;23627;53.302;-6.362;2022-08-25T07:54:03;3.65;;;1.20;;
37787;SDS011;23627;53.302;-6.362;2022-08-25T07:56:30;5.30;;;1.70;;
37787;SDS011;23627;53.302;-6.362;2022-08-25T07:58:56;6.70;;;1.70;;
37787;SDS011;23627;53.302;-6.362;2022-08-25T08:01:22;6.10;;;1.77;;
37787;SDS011;23627;53.302;-6.362;2022-08-25T08:03:49;4.15;;;1.50;;
37787;SDS011;23627;53.302;-6.362;2022-08-25T08:06:16;6.93;;;1.45;;
37787;SDS011;23627;53.302;-6.362;2022-08-25T08:08:44;7.00;;;1.92;;
37787;SDS011;23627;53.302;-6.362;2022-08-25T08:11:20;7.47;;;1.65;;
37787;SDS011;23627;53.302;-6.362;2022-08-25T08:13:49;6.65;;;2.08;;
37787;SDS011;23627;53.302;-6.362;2022-08-25T08:16:17;7.25;;;2.10;;
37787;SDS011;23627;53.302;-6.362;2022-08-25T08:18:44;6.70;;;1.75;;
37787;SDS011;23627;53.302;-6.362;2022-08-25T08:21:18;6.97;;;2.35;;
37787;SDS011;23627;53.302;-6.362;2022-08-25T08:23:46;6.15;;;1.73;;
37787;SDS011;23627;53.302;-6.362;2022-08-25T08:26:14;6.72;;;1.92;;
37787;SDS011;23627;53.302;-6.362;2022-08-25T08:28:40;6.95;;;1.70;;
37787;SDS011;23627;53.302;-6.362;2022-08-25T08:31:06;6.05;;;1.55;;
37787;SDS011;23627;53.302;-6.362;2022-08-25T08:33:32;8.25;;;1.90;;
37787;SDS011;23627;53.302;-6.362;2022-08-25T08:35:59;8.00;;;1.63;;
37787;SDS011;23627;53.302;-6.362;2022-08-25T08:38:30;6.95;;;1.67;;
37787;SDS011;23627;53.302;-6.362;2022-08-25T08:41:03;6.30;;;1.90;;
37787;SDS011;23627;53.302;-6.362;2022-08-25T08:44:00;5.65;;;1.95;;
37787;SDS011;23627;53.302;-6.362;2022-08-25T08:46:38;8.60;;;1.80;;
37787;SDS011;23627;53.302;-6.362;2022-08-25T08:49:20;4.60;;;1.27;;
37787;SDS011;23627;53.302;-6.362;2022-08-25T08:52:10;11.13;;;2.28;;
37787;SDS011;23627;53.302;-6.362;2022-08-25T08:54:39;6.32;;;1.52;;
37787;SDS011;23627;53.302;-6.362;2022-08-25T08:57:13;4.40;;;1.65;;
37787;SDS011;23627;53.302;-6.362;2022-08-25T08:59:56;7.90;;;1.73;;
37787;SDS011;23627;53.302;-6.362;2022-08-25T09:02:27;5.65;;;1.45;;
37787;SDS011;23627;53.302;-6.362;2022-08-25T09:05:11;8.52;;;1.73;;
37787;SDS011;23627;53.302;-6.362;2022-08-25T09:07:42;5.63;;;1.50;;
37787;SDS011;23627;53.302;-6.362;2022-08-25T09:10:18;4.80;;;1.40;;
37787;SDS011;23627;53.302;-6.362;2022-08-25T09:13:29;6.95;;;1.40;;
37787;SDS011;23627;53.302;-6.362;2022-08-25T09:18:50;8.18;;;1.88;;
37787;SDS011;23627;53.302;-6.362;2022-08-25T09:21:39;6.57;;;1.42;;
37787;SDS011;23627;53.302;-6.362;2022-08-25T09:24:21;4.75;;;1.35;;
37787;SDS011;23627;53.302;-6.362;2022-08-25T09:32:20;6.03;;;1.23;;
37787;SDS011;23627;53.302;-6.362;2022-08-25T09:34:47;9.32;;;1.50;;
37787;SDS011;23627;53.302;-6.362;2022-08-25T09:37:15;5.80;;;1.40;;
37787;SDS011;23627;53.302;-6.362;2022-08-25T09:39:40;4.85;;;1.50;;
37787;SDS011;23627;53.302;-6.362;2022-08-25T09:42:06;6.85;;;1.60;;
37787;SDS011;23627;53.302;-6.362;2022-08-25T09:44:35;7.10;;;1.75;;
37787;SDS011;23627;53.302;-6.362;2022-08-25T09:47:06;5.40;;;1.20;;
37787;SDS011;23627;53.302;-6.362;2022-08-25T09:49:58;5.78;;;1.50;;
37787;SDS011;23627;53.302;-6.362;2022-08-25T09:57:32;4.10;;;1.00;;
37787;SDS011;23627;53.302;-6.362;2022-08-25T10:00:19;4.63;;;0.90;;
37787;SDS011;23627;53.302;-6.362;2022-08-25T10:05:32;4.47;;;1.00;;
37787;SDS011;23627;53.302;-6.362;2022-08-25T10:08:09;4.50;;;1.00;;
37787;SDS011;23627;53.302;-6.362;2022-08-25T10:10:39;4.40;;;1.10;;
37787;SDS011;23627;53.302;-6.362;2022-08-25T10:13:19;4.53;;;1.02;;
37787;SDS011;23627;53.302;-6.362;2022-08-25T10:16:07;4.47;;;0.93;;
37787;SDS011;23627;53.302;-6.362;2022-08-25T10:18:58;3.38;;;0.93;;
37787;SDS011;23627;53.302;-6.362;2022-08-25T10:21:26;4.15;;;1.00;;
37787;SDS011;23627;53.302;-6.362;2022-08-25T10:23:53;5.88;;;1.02;;
37787;SDS011;23627;53.302;-6.362;2022-08-25T10:26:27;5.03;;;1.25;;
37787;SDS011;23627;53.302;-6.362;2022-08-25T10:31:54;4.13;;;0.98;;
37787;SDS011;23627;53.302;-6.362;2022-08-25T10:39:49;3.47;;;0.70;;
37787;SDS011;23627;53.302;-6.362;2022-08-25T10:47:47;2.92;;;0.75;;
37787;SDS011;23627;53.302;-6.362;2022-08-25T10:55:49;3.70;;;1.00;;
37787;SDS011;23627;53.302;-6.362;2022-08-25T11:01:01;4.30;;;0.90;;
37787;SDS011;23627;53.302;-6.362;2022-08-25T11:03:49;3.30;;;1.00;;
37787;SDS011;23627;53.302;-6.362;2022-08-25T11:06:24;2.72;;;0.90;;
37787;SDS011;23627;53.302;-6.362;2022-08-25T11:08:59;3.50;;;0.90;;
37787;SDS011;23627;53.302;-6.362;2022-08-25T11:11:34;3.90;;;1.05;;
37787;SDS011;23627;53.302;-6.362;2022-08-25T11:14:10;5.93;;;1.10;;
37787;SDS011;23627;53.302;-6.362;2022-08-25T11:16:41;7.45;;;1.20;;
37787;SDS011;23627;53.302;-6.362;2022-08-25T11:19:15;2.70;;;0.82;;
37787;SDS011;23627;53.302;-6.362;2022-08-25T11:24:40;3.92;;;1.00;;
37787;SDS011;23627;53.302;-6.362;2022-08-25T11:27:46;4.75;;;1.00;;
37787;SDS011;23627;53.302;-6.362;2022-08-25T11:30:18;3.95;;;0.82;;
37787;SDS011;23627;53.302;-6.362;2022-08-25T11:32:52;3.70;;;0.90;;
37787;SDS011;23627;53.302;-6.362;2022-08-25T11:35:25;5.35;;;0.80;;
37787;SDS011;23627;53.302;-6.362;2022-08-25T11:41:04;4.50;;;0.85;;
37787;SDS011;23627;53.302;-6.362;2022-08-25T11:46:17;2.92;;;0.68;;
37787;SDS011;23627;53.302;-6.362;2022-08-25T11:51:52;3.20;;;0.80;;
37787;SDS011;23627;53.302;-6.362;2022-08-25T11:54:20;2.70;;;0.80;;
37787;SDS011;23627;53.302;-6.362;2022-08-25T11:56:54;3.28;;;0.85;;
37787;SDS011;23627;53.302;-6.362;2022-08-25T11:59:59;4.93;;;1.00;;
37787;SDS011;23627;53.302;-6.362;2022-08-25T12:17:47;3.28;;;0.90;;
37787;SDS011;23627;53.302;-6.362;2022-08-25T12:26:50;2.50;;;0.80;;
37787;SDS011;23627;53.302;-6.362;2022-08-25T12:32:20;2.70;;;0.55;;
37787;SDS011;23627;53.302;-6.362;2022-08-25T12:37:51;2.88;;;0.82;;
37787;SDS011;23627;53.302;-6.362;2022-08-25T12:40:38;3.72;;;0.63;;
37787;SDS011;23627;53.302;-6.362;2022-08-25T12:43:11;3.13;;;0.68;;
37787;SDS011;23627;53.302;-6.362;2022-08-25T12:45:45;3.53;;;0.70;;
37787;SDS011;23627;53.302;-6.362;2022-08-25T12:51:09;2.58;;;0.60;;
37787;SDS011;23627;53.302;-6.362;2022-08-25T12:53:43;2.30;;;0.63;;
37787;SDS011;23627;53.302;-6.362;2022-08-25T12:56:20;4.72;;;0.80;;
37787;SDS011;23627;53.302;-6.362;2022-08-25T12:58:55;4.90;;;1.33;;
37787;SDS011;23627;53.302;-6.362;2022-08-25T13:07:45;4.25;;;0.70;;
37787;SDS011;23627;53.302;-6.362;2022-08-25T13:12:46;4.22;;;0.65;;
37787;SDS011;23627;53.302;-6.362;2022-08-25T13:15:41;3.75;;;0.50;;
37787;SDS011;23627;53.302;-6.362;2022-08-25T13:18:24;3.28;;;0.77;;
37787;SDS011;23627;53.302;-6.362;2022-08-25T13:21:12;3.65;;;0.63;;
37787;SDS011;23627;53.302;-6.362;2022-08-25T13:23:45;7.22;;;1.00;;
37787;SDS011;23627;53.302;-6.362;2022-08-25T13:26:38;2.78;;;0.60;;
37787;SDS011;23627;53.302;-6.362;2022-08-25T13:31:32;3.58;;;0.60;;
37787;SDS011;23627;53.302;-6.362;2022-08-25T13:34:06;3.60;;;0.70;;
37787;SDS011;23627;53.302;-6.362;2022-08-25T13:36:34;3.58;;;0.80;;
37787;SDS011;23627;53.302;-6.362;2022-08-25T13:39:29;3.25;;;0.60;;
37787;SDS011;23627;53.302;-6.362;2022-08-25T13:41:58;4.13;;;0.65;;
37787;SDS011;23627;53.302;-6.362;2022-08-25T13:44:28;5.43;;;0.98;;
37787;SDS011;23627;53.302;-6.362;2022-08-25T13:47:06;3.33;;;0.70;;
37787;SDS011;23627;53.302;-6.362;2022-08-25T13:49:35;4.65;;;0.75;;
37787;SDS011;23627;53.302;-6.362;2022-08-25T13:52:02;1.85;;;0.63;;
37787;SDS011;23627;53.302;-6.362;2022-08-25T13:54:30;3.50;;;0.57;;
37787;SDS011;23627;53.302;-6.362;2022-08-25T13:57:20;3.40;;;0.65;;
37787;SDS011;23627;53.302;-6.362;2022-08-25T13:59:49;4.65;;;0.50;;
37787;SDS011;23627;53.302;-6.362;2022-08-25T14:05:03;1.55;;;0.50;;
37787;SDS011;23627;53.302;-6.362;2022-08-25T14:07:30;3.80;;;0.50;;
37787;SDS011;23627;53.302;-6.362;2022-08-25T14:10:03;3.47;;;0.50;;
37787;SDS011;23627;53.302;-6.362;2022-08-25T14:12:40;2.78;;;0.60;;
37787;SDS011;23627;53.302;-6.362;2022-08-25T14:20:27;2.05;;;0.40;;
37787;SDS011;23627;53.302;-6.362;2022-08-25T14:22:56;2.47;;;0.40;;
37787;SDS011;23627;53.302;-6.362;2022-08-25T14:25:26;1.98;;;0.70;;
37787;SDS011;23627;53.302;-6.362;2022-08-25T14:27:56;1.95;;;0.50;;
37787;SDS011;23627;53.302;-6.362;2022-08-25T14:30:24;2.45;;;0.60;;
37787;SDS011;23627;53.302;-6.362;2022-08-25T14:32:50;5.90;;;0.80;;
37787;SDS011;23627;53.302;-6.362;2022-08-25T14:35:16;2.33;;;0.50;;
37787;SDS011;23627;53.302;-6.362;2022-08-25T14:37:45;2.65;;;0.73;;
37787;SDS011;23627;53.302;-6.362;2022-08-25T14:40:12;2.20;;;0.60;;
37787;SDS011;23627;53.302;-6.362;2022-08-25T14:42:40;2.17;;;0.70;;
37787;SDS011;23627;53.302;-6.362;2022-08-25T14:45:06;3.85;;;0.70;;
37787;SDS011;23627;53.302;-6.362;2022-08-25T14:47:32;5.68;;;0.90;;
37787;SDS011;23627;53.302;-6.362;2022-08-25T14:49:59;2.88;;;0.80;;
37787;SDS011;23627;53.302;-6.362;2022-08-25T14:52:26;3.40;;;0.85;;
37787;SDS011;23627;53.302;-6.362;2022-08-25T14:54:54;2.58;;;0.60;;
37787;SDS011;23627;53.302;-6.362;2022-08-25T14:57:23;2.58;;;0.70;;
37787;SDS011;23627;53.302;-6.362;2022-08-25T14:59:50;4.07;;;0.73;;
37787;SDS011;23627;53.302;-6.362;2022-08-25T15:02:16;2.78;;;0.80;;
37787;SDS011;23627;53.302;-6.362;2022-08-25T15:04:50;4.10;;;0.93;;
37787;SDS011;23627;53.302;-6.362;2022-08-25T15:07:19;4.70;;;0.80;;
37787;SDS011;23627;53.302;-6.362;2022-08-25T15:10:04;3.15;;;0.77;;
37787;SDS011;23627;53.302;-6.362;2022-08-25T15:12:31;2.95;;;1.00;;
37787;SDS011;23627;53.302;-6.362;2022-08-25T15:14:58;3.05;;;0.90;;
37787;SDS011;23627;53.302;-6.362;2022-08-25T15:17:24;4.60;;;1.00;;
37787;SDS011;23627;53.302;-6.362;2022-08-25T15:19:53;3.15;;;0.80;;
37787;SDS011;23627;53.302;-6.362;2022-08-25T15:22:19;3.35;;;1.10;;
37787;SDS011;23627;53.302;-6.362;2022-08-25T15:24:44;4.88;;;0.80;;
37787;SDS011;23627;53.302;-6.362;2022-08-25T15:27:10;3.35;;;0.88;;
37787;SDS011;23627;53.302;-6.362;2022-08-25T15:29:39;2.53;;;0.77;;
37787;SDS011;23627;53.302;-6.362;2022-08-25T15:32:05;4.07;;;1.00;;
37787;SDS011;23627;53.302;-6.362;2022-08-25T15:34:33;5.32;;;0.80;;
37787;SDS011;23627;53.302;-6.362;2022-08-25T15:37:05;4.38;;;1.00;;
37787;SDS011;23627;53.302;-6.362;2022-08-25T15:39:34;3.58;;;0.80;;
37787;SDS011;23627;53.302;-6.362;2022-08-25T15:42:00;3.88;;;0.70;;
37787;SDS011;23627;53.302;-6.362;2022-08-25T15:44:30;3.38;;;0.80;;
37787;SDS011;23627;53.302;-6.362;2022-08-25T15:46:56;3.00;;;0.88;;
37787;SDS011;23627;53.302;-6.362;2022-08-25T15:49:23;4.85;;;0.85;;
37787;SDS011;23627;53.302;-6.362;2022-08-25T15:51:51;3.13;;;0.90;;
37787;SDS011;23627;53.302;-6.362;2022-08-25T15:54:17;3.33;;;1.00;;
37787;SDS011;23627;53.302;-6.362;2022-08-25T15:56:44;4.45;;;1.20;;
37787;SDS011;23627;53.302;-6.362;2022-08-25T15:59:11;4.80;;;1.75;;
37787;SDS011;23627;53.302;-6.362;2022-08-25T16:01:37;4.43;;;0.88;;
37787;SDS011;23627;53.302;-6.362;2022-08-25T16:04:03;3.58;;;0.98;;
37787;SDS011;23627;53.302;-6.362;2022-08-25T16:06:29;5.90;;;1.40;;
37787;SDS011;23627;53.302;-6.362;2022-08-25T16:08:55;9.02;;;2.63;;
37787;SDS011;23627;53.302;-6.362;2022-08-25T16:11:22;5.00;;;1.20;;
37787;SDS011;23627;53.302;-6.362;2022-08-25T16:13:54;5.97;;;1.37;;
37787;SDS011;23627;53.302;-6.362;2022-08-25T16:16:21;3.72;;;0.90;;
37787;SDS011;23627;53.302;-6.362;2022-08-25T16:18:49;4.43;;;1.25;;
37787;SDS011;23627;53.302;-6.362;2022-08-25T16:21:17;4.40;;;0.80;;
37787;SDS011;23627;53.302;-6.362;2022-08-25T16:23:47;4.03;;;1.00;;
37787;SDS011;23627;53.302;-6.362;2022-08-25T16:26:13;4.47;;;1.00;;
37787;SDS011;23627;53.302;-6.362;2022-08-25T16:28:40;3.17;;;1.00;;
37787;SDS011;23627;53.302;-6.362;2022-08-25T16:31:08;4.32;;;1.02;;
37787;SDS011;23627;53.302;-6.362;2022-08-25T16:33:34;3.88;;;0.77;;
37787;SDS011;23627;53.302;-6.362;2022-08-25T16:36:10;4.38;;;1.10;;
37787;SDS011;23627;53.302;-6.362;2022-08-25T16:38:44;2.38;;;0.70;;
37787;SDS011;23627;53.302;-6.362;2022-08-25T16:41:15;4.90;;;1.10;;